Main page
METAR-TAF:

METAR-TAF

Airports :

Toussus-le-Noble Airport

Toussus-le-Noble, France

latitude: 48-46N, longitude: 002-06E, elevation: 164 m

Current weather observation

The report was made 21 minutes ago, at 15:30 UTC
Wind 10 kt from the East/Southeast, varying between East and South/Southeast
Temperature 16°C
Humidity 39%
Pressure 1019 hPa
Visibility 10 km or more
no clouds below 1500 m and no cumulonimbus

METAR: LFPN 041530Z AUTO 12010KT 090V150 CAVOK 16/02 Q1019

Time: 17:51 (15:51 UTC)


TAF: missing

Weather observations and forecasts of more than 4000 airports (METAR and TAF reports).

The available stations are represented by yellow and red dots on the map.

Hover mouse over dot to see the name of the station.

Then click to see weather observations and forecasts.

To change the map : click on the green buttons with a black cross to zoom in, on the green button with a dash to zoom out, or on the green arrows for adjacent maps.


METAR-TAF: